Time;durP1;ratioP1;P1;durP2;ratioP2;P2;SDS_P1;SDS_P2;PMS_P1;PMS_P2;Temp;Humidity;BMP_temperature;BMP_pressure;BME280_temperature;BME280_humidity;BME280_pressure;Samples;Min_cycle;Max_cycle;Signal;HPM_P1;HPM_P2
2021/12/23 00:01:19;;;;;;;49.60;29.33;;;6.30;90.90;;;;;;5023192;28;20226;-70
2021/12/23 00:03:47;;;;;;;46.80;29.87;;;6.30;91.00;;;;;;5015585;28;20255;-70
2021/12/23 00:06:14;;;;;;;50.70;30.80;;;6.30;91.00;;;;;;5024104;28;20205;-70
2021/12/23 00:08:41;;;;;;;45.17;29.40;;;6.30;91.00;;;;;;5013744;28;20214;-70
2021/12/23 00:11:08;;;;;;;45.67;29.43;;;6.30;91.10;;;;;;5020844;28;20215;-70
2021/12/23 00:13:36;;;;;;;41.27;29.30;;;6.30;91.10;;;;;;5019834;28;20213;-70
2021/12/23 00:16:06;;;;;;;44.60;29.83;;;6.30;91.10;;;;;;5021902;28;20682;-70
2021/12/23 00:23:51;;;;;;;50.53;34.17;;;6.20;91.10;;;;;;5018574;28;20222;-70
2021/12/23 00:26:18;;;;;;;53.57;34.67;;;6.20;91.20;;;;;;5021199;28;20226;-70
2021/12/23 00:28:45;;;;;;;53.73;35.13;;;6.20;91.20;;;;;;5022079;28;20211;-70
2021/12/23 00:31:14;;;;;;;50.03;35.00;;;6.10;91.20;;;;;;5020548;28;20213;-70
2021/12/23 00:33:42;;;;;;;52.00;35.23;;;6.10;91.20;;;;;;5017890;28;20218;-70
2021/12/23 00:36:11;;;;;;;47.77;33.53;;;6.10;91.20;;;;;;5025754;28;20214;-70
2021/12/23 00:38:45;;;;;;;49.93;31.93;;;6.00;91.20;;;;;;5021785;28;20224;-70
2021/12/23 00:41:13;;;;;;;48.77;32.07;;;6.00;91.20;;;;;;5019155;28;20217;-69
2021/12/23 00:43:40;;;;;;;48.70;33.43;;;5.90;91.10;;;;;;5019440;28;20222;-69
2021/12/23 00:46:08;;;;;;;47.10;32.10;;;5.90;91.20;;;;;;5009361;28;20236;-70
2021/12/23 00:48:35;;;;;;;46.47;32.07;;;5.80;91.20;;;;;;5014409;28;20222;-70
2021/12/23 00:51:04;;;;;;;43.97;31.07;;;5.80;91.20;;;;;;5014651;28;20268;-70
2021/12/23 00:53:37;;;;;;;41.30;30.60;;;5.70;91.20;;;;;;5023066;28;20599;-70
2021/12/23 00:56:04;;;;;;;42.10;30.50;;;5.70;91.20;;;;;;5003566;28;20221;-70
2021/12/23 00:58:31;;;;;;;43.00;29.20;;;5.60;91.10;;;;;;5021230;28;20218;-70
2021/12/23 01:01:01;;;;;;;42.97;29.90;;;5.60;91.00;;;;;;5003520;28;20272;-70
2021/12/23 01:03:29;;;;;;;41.87;29.17;;;5.50;90.80;;;;;;5018773;28;20214;-70
2021/12/23 01:05:57;;;;;;;43.80;29.13;;;5.40;90.70;;;;;;5020375;28;20210;-70
2021/12/23 01:08:25;;;;;;;36.03;25.63;;;5.30;90.70;;;;;;5025927;28;20234;-70
2021/12/23 01:10:56;;;;;;;35.07;26.20;;;5.20;90.70;;;;;;5025547;28;20219;-70
2021/12/23 01:13:27;;;;;;;41.47;26.80;;;5.10;90.60;;;;;;5011324;28;20604;-70
2021/12/23 01:18:42;;;;;;;37.73;26.80;;;4.90;90.50;;;;;;5023105;28;20247;-70
2021/12/23 01:21:16;;;;;;;32.17;23.87;;;4.90;90.50;;;;;;5003981;28;20215;-70
2021/12/23 01:23:52;;;;;;;35.93;24.93;;;4.70;90.40;;;;;;5014703;28;20307;-70
2021/12/23 01:26:22;;;;;;;37.17;25.57;;;4.60;90.50;;;;;;5001306;28;20242;-70
2021/12/23 01:28:53;;;;;;;36.63;23.57;;;4.50;90.50;;;;;;5021435;28;20219;-70
2021/12/23 01:31:23;;;;;;;34.27;24.67;;;4.40;90.60;;;;;;5026657;28;20678;-70
2021/12/23 01:33:50;;;;;;;37.90;26.17;;;4.40;90.70;;;;;;5023374;28;20208;-70
2021/12/23 01:36:18;;;;;;;42.47;27.13;;;4.30;90.70;;;;;;5003271;28;20276;-70
2021/12/23 01:38:45;;;;;;;33.70;23.23;;;4.30;90.70;;;;;;5017437;28;20226;-70
2021/12/23 01:41:13;;;;;;;32.47;23.27;;;4.20;90.80;;;;;;5003897;28;20217;-70
2021/12/23 01:43:40;;;;;;;36.30;23.90;;;4.20;90.90;;;;;;5016585;28;20853;-70
2021/12/23 01:46:12;;;;;;;31.03;21.80;;;4.10;90.90;;;;;;5028063;28;20307;-70
2021/12/23 01:48:40;;;;;;;38.30;23.23;;;4.10;90.90;;;;;;5020612;28;20629;-70
2021/12/23 01:51:07;;;;;;;34.17;21.60;;;4.00;90.80;;;;;;5024591;28;20212;-70
2021/12/23 01:53:34;;;;;;;33.10;22.60;;;3.90;90.90;;;;;;5022347;28;20221;-70
2021/12/23 01:56:02;;;;;;;32.13;21.93;;;3.80;90.90;;;;;;5018081;28;20577;-69
2021/12/23 01:58:29;;;;;;;33.40;22.60;;;3.80;90.90;;;;;;5022300;28;20204;-69
2021/12/23 02:00:56;;;;;;;36.60;22.43;;;3.70;91.00;;;;;;5020737;28;20208;-69
2021/12/23 02:03:24;;;;;;;40.63;22.40;;;3.70;91.20;;;;;;5017561;28;20211;-69
2021/12/23 02:05:52;;;;;;;32.27;22.67;;;3.70;91.40;;;;;;5004559;28;20243;-69
2021/12/23 02:08:32;;;;;;;28.47;21.30;;;3.70;91.50;;;;;;4973358;28;20560;-69
2021/12/23 02:11:00;;;;;;;34.97;22.37;;;3.60;91.50;;;;;;5007244;28;20296;-69
2021/12/23 02:13:28;;;;;;;27.77;20.27;;;3.70;91.50;;;;;;4982193;28;20669;-69
2021/12/23 02:15:55;;;;;;;43.23;21.57;;;3.60;91.40;;;;;;5007416;28;20641;-69
2021/12/23 02:18:22;;;;;;;34.47;22.43;;;3.60;91.30;;;;;;5011216;28;20555;-69
2021/12/23 02:20:50;;;;;;;28.50;19.90;;;3.50;91.40;;;;;;5008961;28;20676;-69
2021/12/23 02:23:17;;;;;;;27.13;20.40;;;3.50;91.40;;;;;;4977520;28;20212;-69
2021/12/23 02:25:44;;;;;;;45.27;21.30;;;3.40;91.50;;;;;;5010304;28;20691;-69
2021/12/23 02:28:20;;;;;;;36.37;19.73;;;3.40;91.60;;;;;;5007486;28;20299;-69
2021/12/23 02:30:51;;;;;;;28.30;20.50;;;3.40;91.60;;;;;;5009777;28;20631;-69
2021/12/23 02:33:23;;;;;;;35.63;20.50;;;3.30;91.60;;;;;;4984664;28;20211;-69
2021/12/23 02:35:53;;;;;;;31.90;19.40;;;3.30;91.70;;;;;;5005418;28;20248;-69
2021/12/23 02:38:20;;;;;;;49.07;19.57;;;3.30;91.70;;;;;;5010573;28;20222;-69
2021/12/23 02:40:48;;;;;;;29.10;18.70;;;3.20;91.70;;;;;;4976741;28;20216;-69
2021/12/23 02:43:25;;;;;;;27.73;20.40;;;3.20;91.80;;;;;;4988139;28;20570;-69
2021/12/23 02:45:55;;;;;;;36.07;19.57;;;3.20;91.80;;;;;;5013217;28;20250;-70
2021/12/23 02:48:23;;;;;;;24.77;19.23;;;3.20;92.00;;;;;;5014834;28;20217;-70
2021/12/23 02:50:54;;;;;;;29.70;19.47;;;3.20;92.00;;;;;;5014454;28;20216;-70
2021/12/23 02:53:21;;;;;;;28.03;18.83;;;3.20;92.10;;;;;;4996122;28;20208;-69
2021/12/23 02:55:49;;;;;;;43.03;19.37;;;3.20;92.00;;;;;;5011861;28;20217;-69
2021/12/23 02:58:17;;;;;;;34.27;20.37;;;3.20;92.10;;;;;;5014682;28;20644;-69
2021/12/23 03:00:46;;;;;;;37.47;19.30;;;3.20;92.10;;;;;;5014629;28;20207;-69
2021/12/23 03:03:14;;;;;;;29.37;17.53;;;3.20;92.10;;;;;;5014644;28;20713;-69
2021/12/23 03:05:49;;;;;;;27.20;19.27;;;3.20;92.10;;;;;;5023234;28;20547;-69
2021/12/23 03:08:26;;;;;;;44.20;20.97;;;3.20;92.20;;;;;;5016290;28;20290;-69
2021/12/23 03:10:53;;;;;;;34.23;18.40;;;3.20;92.20;;;;;;5024758;28;20219;-69
2021/12/23 03:13:20;;;;;;;37.53;18.23;;;3.20;92.20;;;;;;5028693;28;20242;-69
2021/12/23 03:15:47;;;;;;;51.50;20.23;;;3.20;92.20;;;;;;5025795;28;20524;-69
2021/12/23 03:18:14;;;;;;;28.20;19.80;;;3.20;92.20;;;;;;5016705;28;20227;-69
2021/12/23 03:20:41;;;;;;;35.60;21.63;;;3.20;92.20;;;;;;5022158;28;20211;-69
2021/12/23 03:23:08;;;;;;;33.57;19.33;;;3.20;92.20;;;;;;5028176;28;20211;-69
2021/12/23 03:25:35;;;;;;;40.87;19.83;;;3.20;92.20;;;;;;5014135;28;20675;-70
2021/12/23 03:28:03;;;;;;;35.80;19.07;;;3.10;92.20;;;;;;5024456;28;20235;-70
2021/12/23 03:30:30;;;;;;;57.30;21.80;;;3.10;92.30;;;;;;4986615;28;20335;-70
2021/12/23 03:32:57;;;;;;;38.80;18.87;;;3.10;92.50;;;;;;5030189;28;20211;-70
2021/12/23 03:35:24;;;;;;;41.07;20.97;;;3.10;92.60;;;;;;5015008;28;20710;-70
2021/12/23 03:37:53;;;;;;;51.77;19.70;;;3.10;92.60;;;;;;5024065;28;20757;-70
2021/12/23 03:40:21;;;;;;;41.30;20.83;;;3.10;92.60;;;;;;5021176;28;20216;-70
2021/12/23 03:42:49;;;;;;;31.70;20.40;;;3.10;92.60;;;;;;5024236;28;20212;-70
2021/12/23 03:45:17;;;;;;;34.73;20.13;;;3.10;92.60;;;;;;5006657;28;20259;-70
2021/12/23 03:47:48;;;;;;;48.17;21.60;;;3.10;92.70;;;;;;5005707;28;20219;-69
2021/12/23 03:50:22;;;;;;;38.40;19.67;;;3.20;92.70;;;;;;5020919;28;20211;-69
2021/12/23 03:52:50;;;;;;;42.30;19.83;;;3.20;92.80;;;;;;5026492;28;20208;-69
2021/12/23 03:55:17;;;;;;;35.83;20.47;;;3.20;92.80;;;;;;5011866;28;20665;-69
2021/12/23 03:57:46;;;;;;;98.27;22.87;;;3.20;92.80;;;;;;5026737;28;20658;-69
2021/12/23 04:00:17;;;;;;;31.83;19.10;;;3.20;92.90;;;;;;5024523;28;20218;-69
2021/12/23 04:02:44;;;;;;;42.00;20.83;;;3.20;92.90;;;;;;5020313;28;20279;-70
2021/12/23 04:05:12;;;;;;;39.40;19.83;;;3.20;92.80;;;;;;5026183;28;20282;-69
2021/12/23 04:07:39;;;;;;;41.67;20.23;;;3.30;92.80;;;;;;5022432;28;20209;-69
2021/12/23 04:10:08;;;;;;;43.50;18.30;;;3.20;92.80;;;;;;5016924;28;20208;-69
2021/12/23 04:12:36;;;;;;;44.03;22.30;;;3.20;92.90;;;;;;5028613;28;20540;-70
2021/12/23 04:15:04;;;;;;;57.60;20.77;;;3.20;93.00;;;;;;5008187;28;20227;-70
2021/12/23 04:17:36;;;;;;;46.17;19.27;;;3.20;93.00;;;;;;5023053;28;20658;-69
2021/12/23 04:20:19;;;;;;;51.90;20.30;;;3.30;93.00;;;;;;5019614;28;20222;-69
2021/12/23 04:22:56;;;;;;;32.97;21.53;;;3.30;93.10;;;;;;5021269;28;20211;-69
2021/12/23 04:25:27;;;;;;;41.60;21.73;;;3.20;93.10;;;;;;5022785;28;20242;-69
2021/12/23 04:28:01;;;;;;;45.23;19.70;;;3.30;93.20;;;;;;5022760;28;20222;-69
2021/12/23 04:30:28;;;;;;;48.63;20.73;;;3.30;93.10;;;;;;5000619;28;20221;-69
2021/12/23 04:32:56;;;;;;;51.57;19.90;;;3.30;93.10;;;;;;5022675;28;20670;-69
2021/12/23 04:35:23;;;;;;;48.20;20.20;;;3.30;93.10;;;;;;5025797;28;20757;-69
2021/12/23 04:37:50;;;;;;;35.17;20.57;;;3.30;93.20;;;;;;5014963;28;20238;-69
2021/12/23 04:40:17;;;;;;;46.90;21.87;;;3.30;93.30;;;;;;5007801;28;20223;-69
2021/12/23 04:42:45;;;;;;;38.30;19.60;;;3.30;93.30;;;;;;5014208;28;20243;-69
2021/12/23 04:45:12;;;;;;;39.67;21.47;;;3.30;93.30;;;;;;5022333;28;20573;-69
2021/12/23 04:47:40;;;;;;;50.57;23.30;;;3.30;93.30;;;;;;5008843;28;20599;-69
2021/12/23 04:50:10;;;;;;;37.90;21.60;;;3.30;93.30;;;;;;5024104;28;20226;-69
2021/12/23 04:52:38;;;;;;;36.43;22.67;;;3.30;93.30;;;;;;5003714;28;20634;-69
2021/12/23 04:55:06;;;;;;;44.90;21.33;;;3.30;93.40;;;;;;4991735;28;20227;-69
2021/12/23 04:57:33;;;;;;;39.67;21.63;;;3.30;93.40;;;;;;5026631;28;20265;-69
2021/12/23 05:00:02;;;;;;;42.93;22.73;;;3.30;93.50;;;;;;5022154;28;20211;-69
2021/12/23 05:02:29;;;;;;;52.37;21.30;;;3.40;93.50;;;;;;5020834;28;20238;-69
2021/12/23 05:04:56;;;;;;;49.30;22.10;;;3.40;93.70;;;;;;5003719;28;20252;-70
2021/12/23 05:07:24;;;;;;;38.17;21.97;;;3.40;93.50;;;;;;5024981;28;20234;-70
2021/12/23 05:09:51;;;;;;;50.67;22.50;;;3.40;93.50;;;;;;5019450;28;20214;-70
2021/12/23 05:12:18;;;;;;;38.77;23.03;;;3.50;93.50;;;;;;4997433;28;20216;-70
2021/12/23 05:14:46;;;;;;;39.70;22.00;;;3.50;93.50;;;;;;5001724;28;20639;-70
2021/12/23 05:17:13;;;;;;;42.17;22.80;;;3.50;93.50;;;;;;5024750;28;20208;-69
2021/12/23 05:19:40;;;;;;;39.57;22.63;;;3.50;93.50;;;;;;5011193;28;20220;-69
2021/12/23 05:22:07;;;;;;;42.43;22.60;;;3.50;93.50;;;;;;5020085;28;20219;-70
2021/12/23 05:24:34;;;;;;;40.17;24.03;;;3.60;93.50;;;;;;5019592;28;20219;-70
2021/12/23 05:27:02;;;;;;;47.13;22.73;;;3.60;93.50;;;;;;5021187;28;20295;-70
2021/12/23 05:29:29;;;;;;;39.47;23.10;;;3.60;93.50;;;;;;5020022;28;20217;-70
2021/12/23 05:31:56;;;;;;;39.57;21.93;;;3.60;93.60;;;;;;5016232;28;20222;-70
2021/12/23 05:34:23;;;;;;;41.70;23.03;;;3.60;93.60;;;;;;5004060;28;20221;-69
2021/12/23 05:36:50;;;;;;;37.17;23.30;;;3.60;93.60;;;;;;5024816;28;20635;-69
2021/12/23 05:39:17;;;;;;;45.20;23.67;;;3.60;93.60;;;;;;5023199;28;20231;-69
2021/12/23 05:41:44;;;;;;;34.90;22.53;;;3.60;93.90;;;;;;5021235;28;20652;-69
2021/12/23 05:44:11;;;;;;;36.67;24.03;;;3.70;93.60;;;;;;5012682;28;20211;-70
2021/12/23 05:46:38;;;;;;;39.37;23.43;;;3.70;93.60;;;;;;5017513;28;20236;-70
2021/12/23 05:49:05;;;;;;;46.73;24.97;;;3.70;93.60;;;;;;5023306;28;20720;-70
2021/12/23 05:51:33;;;;;;;44.33;23.73;;;3.70;93.60;;;;;;5017219;28;20347;-70
2021/12/23 05:54:00;;;;;;;51.50;24.07;;;3.70;93.60;;;;;;5015353;28;20282;-69
2021/12/23 05:56:31;;;;;;;59.03;24.77;;;3.70;93.60;;;;;;5025421;28;20212;-69
2021/12/23 05:58:58;;;;;;;46.00;24.33;;;3.70;93.70;;;;;;5025249;28;20221;-69
2021/12/23 06:01:26;;;;;;;35.53;23.33;;;3.80;93.70;;;;;;4989732;28;20235;-69
2021/12/23 06:03:53;;;;;;;67.17;26.83;;;3.80;93.70;;;;;;5023274;28;20236;-69
2021/12/23 06:06:20;;;;;;;53.53;23.53;;;3.80;93.70;;;;;;5001286;28;20230;-69
2021/12/23 06:08:47;;;;;;;52.97;26.13;;;3.80;93.60;;;;;;5021624;28;20208;-69
2021/12/23 06:11:14;;;;;;;50.57;25.67;;;3.80;93.60;;;;;;5021260;28;20228;-70
2021/12/23 06:13:41;;;;;;;57.87;25.50;;;3.80;93.60;;;;;;5015578;28;20217;-70
2021/12/23 06:16:08;;;;;;;49.07;26.13;;;3.80;93.70;;;;;;5010133;28;20215;-70
2021/12/23 06:18:36;;;;;;;62.40;29.17;;;3.90;93.70;;;;;;5022591;28;20213;-70
2021/12/23 06:21:03;;;;;;;46.37;26.30;;;3.90;93.70;;;;;;5023107;28;20220;-70
2021/12/23 06:23:31;;;;;;;53.47;25.77;;;3.90;93.80;;;;;;5019142;28;20207;-70
2021/12/23 06:25:59;;;;;;;48.30;23.53;;;3.90;93.80;;;;;;5014908;28;20232;-70
2021/12/23 06:28:26;;;;;;;58.50;25.63;;;3.90;93.80;;;;;;5021843;28;20527;-69
2021/12/23 06:30:53;;;;;;;56.50;26.73;;;3.90;93.80;;;;;;5011706;28;20251;-69
2021/12/23 06:33:20;;;;;;;41.47;23.63;;;3.90;93.90;;;;;;5016913;28;20214;-69
2021/12/23 06:35:50;;;;;;;45.37;23.53;;;3.90;93.90;;;;;;5013438;28;20232;-69
2021/12/23 06:38:17;;;;;;;62.30;23.90;;;4.00;93.90;;;;;;5028041;28;20222;-69
2021/12/23 06:40:45;;;;;;;52.43;24.27;;;4.00;93.90;;;;;;5010889;28;20227;-69
2021/12/23 06:43:12;;;;;;;62.73;25.30;;;4.00;93.90;;;;;;5021104;28;20207;-69
2021/12/23 06:45:39;;;;;;;51.50;24.50;;;4.00;93.90;;;;;;5004523;28;20707;-69
2021/12/23 06:48:06;;;;;;;78.87;28.20;;;4.00;93.90;;;;;;5023064;28;20706;-69
2021/12/23 06:50:33;;;;;;;81.33;25.87;;;4.10;93.90;;;;;;5004031;28;20214;-70
2021/12/23 06:53:00;;;;;;;58.17;24.67;;;4.00;93.80;;;;;;5018629;28;20216;-70
2021/12/23 06:55:28;;;;;;;51.77;27.30;;;4.00;93.80;;;;;;5016807;28;20220;-70
2021/12/23 06:57:56;;;;;;;58.00;27.07;;;4.10;93.90;;;;;;5022594;28;20220;-70
2021/12/23 07:00:27;;;;;;;62.23;27.87;;;4.10;94.00;;;;;;5020257;28;20224;-70
2021/12/23 07:02:55;;;;;;;63.17;26.83;;;4.10;94.00;;;;;;5001786;28;20229;-70
2021/12/23 07:05:22;;;;;;;74.60;30.73;;;4.10;94.10;;;;;;5031466;28;20247;-70
2021/12/23 07:08:03;;;;;;;74.33;29.23;;;4.20;94.10;;;;;;5036247;28;20237;-70
2021/12/23 07:10:32;;;;;;;63.53;27.53;;;4.20;94.10;;;;;;5028357;28;20622;-69
2021/12/23 07:13:02;;;;;;;61.53;27.90;;;4.20;94.10;;;;;;5022111;28;20213;-69
2021/12/23 07:15:30;;;;;;;70.70;29.57;;;4.20;94.10;;;;;;5016005;28;20239;-69
2021/12/23 07:17:58;;;;;;;54.90;26.07;;;4.20;94.10;;;;;;5033314;28;20582;-69
2021/12/23 07:20:27;;;;;;;67.67;29.33;;;4.30;94.20;;;;;;5023469;28;20244;-69
2021/12/23 07:22:55;;;;;;;65.87;29.70;;;4.30;94.50;;;;;;5023236;28;20303;-70
2021/12/23 07:25:22;;;;;;;59.13;27.30;;;4.30;94.20;;;;;;5021989;28;20228;-69
2021/12/23 07:27:49;;;;;;;60.33;25.97;;;4.30;94.20;;;;;;5025109;28;20210;-69
2021/12/23 07:30:18;;;;;;;61.17;28.40;;;4.40;94.20;;;;;;5021384;28;20208;-69
2021/12/23 07:32:47;;;;;;;60.63;29.20;;;4.40;94.20;;;;;;5028884;28;20210;-69
2021/12/23 07:35:16;;;;;;;79.87;30.17;;;4.40;94.20;;;;;;5020410;28;20801;-69
2021/12/23 07:37:43;;;;;;;70.97;28.70;;;4.50;94.20;;;;;;5018796;28;20220;-69
2021/12/23 07:40:15;;;;;;;68.87;27.77;;;4.50;94.20;;;;;;5036938;28;20255;-69
2021/12/23 07:42:57;;;;;;;62.57;28.53;;;4.50;94.20;;;;;;5026580;28;20229;-70
2021/12/23 07:45:27;;;;;;;66.80;28.47;;;4.50;94.20;;;;;;5021665;28;20236;-70
2021/12/23 07:47:55;;;;;;;53.13;27.07;;;4.60;94.30;;;;;;5018214;28;20225;-70
2021/12/23 07:50:23;;;;;;;73.53;28.37;;;4.60;94.30;;;;;;5041436;28;20210;-70
2021/12/23 07:52:50;;;;;;;69.97;28.33;;;4.70;94.20;;;;;;5022613;28;20215;-70
2021/12/23 07:55:17;;;;;;;70.70;30.17;;;4.70;94.10;;;;;;5027474;28;20218;-70
2021/12/23 07:57:44;;;;;;;63.67;29.77;;;4.70;93.90;;;;;;5020479;28;20220;-70
2021/12/23 08:00:13;;;;;;;71.90;30.47;;;4.70;93.90;;;;;;5021278;28;20288;-70
2021/12/23 08:02:41;;;;;;;82.07;33.43;;;4.70;94.00;;;;;;5039797;28;20228;-69
2021/12/23 08:05:08;;;;;;;69.40;31.90;;;4.80;94.20;;;;;;5024837;28;20304;-69
2021/12/23 08:07:35;;;;;;;73.50;33.27;;;4.80;94.20;;;;;;5040386;28;20304;-70
2021/12/23 08:10:03;;;;;;;78.83;32.73;;;4.80;94.20;;;;;;5038520;28;20511;-70
2021/12/23 08:12:31;;;;;;;83.97;35.33;;;4.90;94.30;;;;;;5024035;28;20228;-70
2021/12/23 08:14:58;;;;;;;80.70;31.87;;;5.00;94.30;;;;;;5038886;28;20225;-70
2021/12/23 08:17:34;;;;;;;59.80;29.93;;;5.10;94.30;;;;;;5017643;28;20273;-70
2021/12/23 08:20:01;;;;;;;108.73;46.73;;;5.10;94.20;;;;;;5021401;28;20201;-70
2021/12/23 08:22:29;;;;;;;668.80;354.67;;;5.20;94.20;;;;;;5022304;28;20209;-70
2021/12/23 08:24:56;;;;;;;81.33;37.20;;;5.20;94.10;;;;;;5026117;28;20209;-70
2021/12/23 08:27:27;;;;;;;71.93;32.70;;;5.30;94.10;;;;;;5040678;28;20673;-70
2021/12/23 08:29:54;;;;;;;76.50;34.47;;;5.30;94.10;;;;;;5022052;28;20641;-70
2021/12/23 08:32:22;;;;;;;72.47;32.60;;;5.40;94.10;;;;;;5021669;28;20219;-70
2021/12/23 08:34:49;;;;;;;65.13;30.13;;;5.40;94.00;;;;;;5024205;28;20219;-70
2021/12/23 08:37:17;;;;;;;64.17;29.90;;;5.50;94.00;;;;;;5018389;28;20241;-70
2021/12/23 08:39:44;;;;;;;88.23;36.13;;;5.60;93.90;;;;;;5017728;28;20296;-70
2021/12/23 08:42:11;;;;;;;69.13;31.40;;;5.60;93.70;;;;;;5035104;28;20224;-69
2021/12/23 08:44:40;;;;;;;74.90;31.47;;;5.60;93.70;;;;;;5025990;28;20211;-69
2021/12/23 08:47:12;;;;;;;68.17;32.20;;;5.60;93.70;;;;;;5023419;28;20611;-69
2021/12/23 08:49:41;;;;;;;70.43;32.63;;;5.70;93.70;;;;;;5018509;28;20215;-69
2021/12/23 08:52:08;;;;;;;61.30;29.53;;;5.70;93.60;;;;;;5023936;28;20237;-69
2021/12/23 08:54:35;;;;;;;71.07;32.17;;;5.70;93.60;;;;;;5024871;28;20218;-69
2021/12/23 08:57:04;;;;;;;65.57;31.97;;;5.80;93.60;;;;;;5034937;28;20225;-69
2021/12/23 08:59:32;;;;;;;65.60;31.27;;;5.80;93.50;;;;;;5019525;28;20321;-70
2021/12/23 09:01:59;;;;;;;69.97;32.00;;;5.80;93.40;;;;;;5026601;28;20560;-70
2021/12/23 09:04:31;;;;;;;66.50;30.33;;;5.90;93.40;;;;;;5016970;28;20231;-70
2021/12/23 09:06:58;;;;;;;66.90;32.30;;;5.90;93.30;;;;;;5027322;28;20234;-70
2021/12/23 09:09:26;;;;;;;65.13;31.27;;;6.00;93.30;;;;;;5040017;28;20633;-70
2021/12/23 09:11:53;;;;;;;75.80;32.13;;;6.00;93.20;;;;;;5030621;28;20528;-70
2021/12/23 09:14:20;;;;;;;66.87;30.40;;;6.00;93.10;;;;;;5026445;28;20264;-70
2021/12/23 09:16:47;;;;;;;69.67;31.87;;;6.10;93.10;;;;;;5025129;28;20215;-70
2021/12/23 09:19:14;;;;;;;69.73;31.90;;;6.10;92.90;;;;;;5022600;28;20271;-70
2021/12/23 09:21:41;;;;;;;75.10;32.63;;;6.10;92.90;;;;;;5034517;28;21075;-70
2021/12/23 09:24:09;;;;;;;70.70;33.03;;;6.20;92.90;;;;;;5023978;28;20211;-70
2021/12/23 09:26:46;;;;;;;70.23;32.50;;;6.20;92.70;;;;;;5030153;28;20254;-69
2021/12/23 09:32:40;;;;;;;65.40;32.10;;;6.20;92.70;;;;;;5027553;28;20536;-70
2021/12/23 09:34:51;;;;;;;75.43;31.30;;;6.20;92.20;;;;;;5018898;28;20651;-69
2021/12/23 09:37:18;;;;;;;70.07;32.03;;;6.10;92.10;;;;;;5021878;28;20233;-69
2021/12/23 09:39:52;;;;;;;68.63;32.37;;;6.00;92.20;;;;;;5020493;28;20233;-70
2021/12/23 09:42:38;;;;;;;66.90;31.73;;;6.00;92.30;;;;;;5043731;28;20219;-69
2021/12/23 09:45:11;;;;;;;70.60;32.73;;;5.90;92.60;;;;;;5023636;28;20848;-69
2021/12/23 09:47:41;;;;;;;67.23;32.03;;;5.90;92.60;;;;;;5024119;28;20249;-69
2021/12/23 09:50:11;;;;;;;70.80;34.57;;;5.80;92.80;;;;;;5035030;28;20857;-69
2021/12/23 09:52:50;;;;;;;75.90;34.17;;;5.80;93.00;;;;;;5018074;28;20202;-69
2021/12/23 09:55:20;;;;;;;72.00;33.63;;;5.80;93.00;;;;;;5039697;28;20206;-69
2021/12/23 09:57:50;;;;;;;62.20;28.97;;;5.80;93.20;;;;;;5025333;28;20215;-69
2021/12/23 10:00:23;;;;;;;64.87;31.00;;;5.90;93.40;;;;;;5036033;28;20691;-70
2021/12/23 10:02:51;;;;;;;68.30;32.97;;;5.90;93.20;;;;;;5024795;28;20688;-70
2021/12/23 10:05:22;;;;;;;67.70;32.70;;;5.90;93.30;;;;;;5037188;28;20250;-70
2021/12/23 10:07:49;;;;;;;67.97;30.40;;;6.00;93.10;;;;;;5031361;28;20739;-70
2021/12/23 10:10:27;;;;;;;63.87;30.07;;;6.00;93.20;;;;;;5036666;28;20220;-70
2021/12/23 10:33:07;;;;;;;68.47;31.70;;;6.30;92.60;;;;;;4977838;28;20562;-69
2021/12/23 10:38:23;;;;;;;60.13;28.63;;;6.40;92.70;;;;;;5024806;28;20294;-69
2021/12/23 10:40:53;;;;;;;60.57;29.70;;;6.50;92.70;;;;;;5033802;28;20308;-69
2021/12/23 10:43:47;;;;;;;61.67;30.33;;;6.50;92.40;;;;;;5018687;28;20218;-69
2021/12/23 10:46:25;;;;;;;62.80;31.10;;;6.60;92.20;;;;;;5034469;28;20577;-69
2021/12/23 10:49:16;;;;;;;68.80;33.13;;;6.70;92.20;;;;;;5025583;28;20211;-70
2021/12/23 10:52:00;;;;;;;70.93;33.30;;;6.80;92.20;;;;;;5023928;28;20220;-69
2021/12/23 11:00:20;;;;;;;77.73;35.93;;;6.90;91.20;;;;;;5022130;28;20218;-69
2021/12/23 11:03:16;;;;;;;76.07;36.03;;;7.00;91.40;;;;;;5022843;28;20225;-69
2021/12/23 11:05:56;;;;;;;70.60;36.50;;;7.00;91.60;;;;;;5028653;28;20230;-69
2021/12/23 11:08:34;;;;;;;80.77;37.17;;;7.10;91.70;;;;;;5005579;28;20214;-69
2021/12/23 11:39:28;;;;;;;47.57;29.20;;;8.60;90.40;;;;;;5021680;28;20637;-70
2021/12/23 11:42:02;;;;;;;47.30;26.80;;;8.80;89.80;;;;;;5006734;28;20223;-70
2021/12/23 11:44:34;;;;;;;54.70;28.60;;;8.90;89.00;;;;;;5023631;28;20288;-70
2021/12/23 11:47:09;;;;;;;50.53;28.37;;;9.00;88.50;;;;;;5026727;28;20243;-70
2021/12/23 11:49:39;;;;;;;47.00;26.97;;;9.10;87.80;;;;;;5024069;28;20504;-70
2021/12/23 11:52:07;;;;;;;39.77;25.83;;;9.10;86.60;;;;;;5025496;28;20210;-70
2021/12/23 11:54:37;;;;;;;43.67;25.03;;;9.00;85.80;;;;;;5004608;28;20217;-70
2021/12/23 11:57:16;;;;;;;41.73;26.07;;;9.00;85.20;;;;;;5024914;28;20704;-70
2021/12/23 12:00:01;;;;;;;43.50;26.90;;;8.90;85.10;;;;;;5007207;28;20581;-70
2021/12/23 12:02:32;;;;;;;43.60;26.47;;;8.80;85.00;;;;;;5024321;28;20646;-70
2021/12/23 12:05:05;;;;;;;43.63;26.17;;;8.70;85.40;;;;;;5025423;28;20592;-70
2021/12/23 12:07:32;;;;;;;43.10;25.37;;;8.60;85.70;;;;;;5024617;28;20235;-70
2021/12/23 12:10:07;;;;;;;42.10;25.40;;;8.50;86.10;;;;;;5021863;28;20217;-70
2021/12/23 12:12:54;;;;;;;39.90;24.80;;;8.50;86.40;;;;;;5024443;28;20203;-70
2021/12/23 12:15:43;;;;;;;37.57;25.57;;;8.40;86.50;;;;;;5015285;28;20241;-70
2021/12/23 12:18:15;;;;;;;39.60;25.57;;;8.40;86.50;;;;;;5020916;28;20692;-70
2021/12/23 12:20:46;;;;;;;41.77;25.13;;;8.40;86.60;;;;;;5026131;28;20532;-70
2021/12/23 12:23:19;;;;;;;40.80;25.47;;;8.40;86.80;;;;;;5025664;28;20219;-70
2021/12/23 12:25:49;;;;;;;40.93;25.10;;;8.40;86.80;;;;;;5024417;28;20578;-70
2021/12/23 12:28:21;;;;;;;40.23;26.10;;;8.50;86.60;;;;;;5025692;28;20233;-70
2021/12/23 12:31:00;;;;;;;40.67;25.27;;;8.50;86.40;;;;;;5002766;28;20256;-70
2021/12/23 12:33:27;;;;;;;42.80;26.93;;;8.50;86.20;;;;;;5024305;28;20210;-70
2021/12/23 12:36:03;;;;;;;43.53;26.60;;;8.50;86.30;;;;;;5012048;28;20215;-70
2021/12/23 12:38:32;;;;;;;42.57;25.97;;;8.50;86.40;;;;;;5023067;28;20256;-70
2021/12/23 12:41:03;;;;;;;44.80;25.90;;;8.60;86.60;;;;;;5019591;28;20678;-70
2021/12/23 12:43:49;;;;;;;42.80;26.63;;;8.70;86.20;;;;;;5024276;28;20276;-70
2021/12/23 12:46:41;;;;;;;44.17;26.63;;;8.70;85.70;;;;;;5024027;28;20214;-70
2021/12/23 12:49:15;;;;;;;45.00;26.60;;;8.80;85.60;;;;;;5010914;28;20212;-70
2021/12/23 12:51:47;;;;;;;47.77;27.23;;;8.80;85.20;;;;;;5025658;28;20273;-70
2021/12/23 12:54:19;;;;;;;44.40;27.00;;;8.70;85.10;;;;;;5023254;28;20215;-70
2021/12/23 12:56:52;;;;;;;44.77;27.37;;;8.70;85.10;;;;;;5020873;28;20215;-70
2021/12/23 12:59:24;;;;;;;44.90;27.07;;;8.70;84.90;;;;;;5011211;28;20637;-70
2021/12/23 13:01:53;;;;;;;44.80;27.07;;;8.60;84.60;;;;;;5025547;28;20211;-70
2021/12/23 13:04:25;;;;;;;46.10;27.90;;;8.60;84.60;;;;;;5022589;28;20268;-70
2021/12/23 13:06:55;;;;;;;46.17;28.03;;;8.50;84.90;;;;;;5024727;28;20426;-70
2021/12/23 13:09:55;;;;;;;47.50;26.83;;;8.50;85.10;;;;;;5020603;28;20218;-69
2021/12/23 13:12:52;;;;;;;47.23;29.80;;;8.40;85.50;;;;;;5026132;28;20226;-70
2021/12/23 13:15:40;;;;;;;44.57;28.20;;;8.40;85.50;;;;;;5017875;28;20215;-70
2021/12/23 13:18:19;;;;;;;45.63;27.37;;;8.40;85.30;;;;;;5022958;28;20214;-70
2021/12/23 13:20:53;;;;;;;50.10;28.20;;;8.40;85.40;;;;;;5021756;28;20229;-69
2021/12/23 13:23:37;;;;;;;45.73;27.50;;;8.40;85.50;;;;;;5028036;28;20217;-69
2021/12/23 13:26:07;;;;;;;45.80;26.73;;;8.40;85.50;;;;;;5021068;28;20650;-69
2021/12/23 13:28:53;;;;;;;44.10;27.97;;;8.40;85.60;;;;;;5026885;28;20239;-69
2021/12/23 13:31:24;;;;;;;42.43;26.97;;;8.40;85.50;;;;;;5020563;28;20206;-69
2021/12/23 13:33:56;;;;;;;40.47;25.93;;;8.40;85.40;;;;;;5012262;28;20208;-69
2021/12/23 13:36:31;;;;;;;37.37;25.00;;;8.40;85.20;;;;;;5021158;28;20278;-69
2021/12/23 13:39:07;;;;;;;36.40;24.80;;;8.40;85.00;;;;;;5023904;28;20277;-69
2021/12/23 13:41:46;;;;;;;37.37;25.53;;;8.30;84.70;;;;;;5019445;28;20241;-69
2021/12/23 13:44:17;;;;;;;43.10;25.03;;;8.30;84.50;;;;;;5027202;28;20214;-69
2021/12/23 13:47:07;;;;;;;40.97;26.43;;;8.30;84.50;;;;;;5021239;28;20397;-69
2021/12/23 13:49:58;;;;;;;41.90;26.07;;;8.40;84.40;;;;;;5025191;28;20212;-69
2021/12/23 13:52:26;;;;;;;39.73;25.60;;;8.30;84.20;;;;;;5020366;28;20214;-69
2021/12/23 13:54:58;;;;;;;40.73;26.23;;;8.30;84.20;;;;;;5021288;28;20211;-69
2021/12/23 13:57:27;;;;;;;38.70;24.70;;;8.40;84.30;;;;;;5026103;28;20698;-69
2021/12/23 13:59:55;;;;;;;40.37;26.93;;;8.40;84.10;;;;;;5004151;28;20681;-69